Time;durP1;ratioP1;P1;durP2;ratioP2;P2;SDS_P1;SDS_P2;PMS_P1;PMS_P2;Temp;Humidity;BMP_temperature;BMP_pressure;BME280_temperature;BME280_humidity;BME280_pressure;Samples;Min_cycle;Max_cycle;Signal;HPM_P1;HPM_P2
2022/12/26 00:03:55;;;;;;;5.60;5.20;;;12.20;99.90;;;;;;10359945;28;20257;-79
2022/12/26 00:08:59;;;;;;;5.00;4.67;;;12.10;99.90;;;;;;10354589;28;20226;-78
2022/12/26 00:14:06;;;;;;;5.00;4.70;;;12.00;99.90;;;;;;10377490;28;20195;-78
2022/12/26 00:19:09;;;;;;;4.50;4.30;;;12.00;99.90;;;;;;10375586;28;20214;-79
2022/12/26 00:24:11;;;;;;;5.80;5.40;;;11.90;99.90;;;;;;10377829;28;20750;-78
2022/12/26 00:29:15;;;;;;;5.03;4.73;;;11.80;99.90;;;;;;10370925;28;20218;-78
2022/12/26 00:34:17;;;;;;;5.13;4.73;;;11.80;99.90;;;;;;10381610;28;20226;-78
2022/12/26 00:39:19;;;;;;;5.43;4.90;;;11.90;99.90;;;;;;10380779;28;20713;-78
2022/12/26 00:44:22;;;;;;;5.13;4.83;;;11.90;99.90;;;;;;10358292;28;20202;-79
2022/12/26 00:49:25;;;;;;;5.50;4.80;;;11.90;99.90;;;;;;10354711;28;20218;-78
2022/12/26 00:54:27;;;;;;;4.97;4.60;;;11.90;99.90;;;;;;10363345;28;20294;-78
2022/12/26 00:59:30;;;;;;;5.03;4.53;;;11.80;99.90;;;;;;10381559;28;20262;-78
2022/12/26 01:04:32;;;;;;;4.80;4.50;;;11.90;99.90;;;;;;10336741;28;20239;-79
2022/12/26 01:09:35;;;;;;;5.00;4.67;;;11.80;99.90;;;;;;10378758;23;20697;-81
2022/12/26 01:14:38;;;;;;;9.27;8.47;;;11.80;99.90;;;;;;10338514;28;20191;-81
2022/12/26 01:19:40;;;;;;;5.90;5.50;;;11.60;99.90;;;;;;10339767;28;20211;-81
2022/12/26 01:24:42;;;;;;;4.77;4.47;;;11.60;99.90;;;;;;10357243;28;20215;-81
2022/12/26 01:29:46;;;;;;;5.77;5.33;;;11.60;99.90;;;;;;10360801;28;20225;-80
2022/12/26 01:34:48;;;;;;;5.23;4.83;;;11.50;99.90;;;;;;10343933;28;20416;-81
2022/12/26 01:39:51;;;;;;;5.90;5.00;;;11.50;99.90;;;;;;10300233;28;20372;-82
2022/12/26 01:45:16;;;;;;;8.17;7.30;;;11.50;99.90;;;;;;10339087;28;20318;-81
2022/12/26 01:50:29;;;;;;;8.37;7.57;;;11.40;99.90;;;;;;10338202;28;20210;-81
2022/12/26 01:55:32;;;;;;;5.33;4.90;;;11.30;99.90;;;;;;10343688;28;20501;-81
2022/12/26 02:00:37;;;;;;;5.00;4.70;;;11.30;99.90;;;;;;10338011;28;20227;-81
2022/12/26 02:05:39;;;;;;;6.10;5.70;;;11.40;99.90;;;;;;10336465;28;20259;-82
2022/12/26 02:10:51;;;;;;;4.90;4.60;;;11.40;99.90;;;;;;10339498;28;20237;-82
2022/12/26 02:15:55;;;;;;;4.50;4.27;;;11.50;99.90;;;;;;10343194;28;20199;-82
2022/12/26 02:21:18;;;;;;;7.83;4.80;;;11.70;99.90;;;;;;10343787;28;20215;-82
2022/12/26 02:26:54;;;;;;;4.77;4.47;;;11.70;99.90;;;;;;10344902;28;20305;-82
2022/12/26 02:32:07;;;;;;;4.77;4.50;;;11.80;99.90;;;;;;10331356;28;20202;-80
2022/12/26 02:37:23;;;;;;;5.10;4.80;;;11.80;99.90;;;;;;10341959;28;20718;-82
2022/12/26 02:42:35;;;;;;;5.43;5.03;;;11.80;99.90;;;;;;10337087;28;20222;-81
2022/12/26 02:47:48;;;;;;;5.40;4.90;;;11.80;99.90;;;;;;10336374;28;20223;-82
2022/12/26 03:14:37;;;;;;;4.30;4.07;;;12.20;99.90;;;;;;10338988;28;20278;-82
2022/12/26 03:19:57;;;;;;;4.23;4.03;;;12.20;99.90;;;;;;10340748;28;20218;-82
2022/12/26 03:35:44;;;;;;;5.00;4.70;;;12.30;99.90;;;;;;10337739;28;20277;-82
2022/12/26 04:45:54;;;;;;;3.90;3.60;;;12.50;99.90;;;;;;10339750;28;20211;-80
2022/12/26 04:50:56;;;;;;;4.80;4.20;;;12.60;99.90;;;;;;10324120;28;20671;-80
2022/12/26 04:56:00;;;;;;;4.60;4.20;;;12.70;99.90;;;;;;10341486;28;20199;-80
2022/12/26 05:11:39;;;;;;;3.60;3.40;;;12.70;99.90;;;;;;10342282;28;20278;-80
2022/12/26 05:38:02;;;;;;;4.13;3.83;;;12.50;99.90;;;;;;10344034;28;20767;-81
2022/12/26 05:43:05;;;;;;;4.30;4.00;;;12.50;99.90;;;;;;10338186;28;20242;-79
2022/12/26 05:48:07;;;;;;;4.20;4.00;;;12.60;99.90;;;;;;10320458;28;20708;-80
2022/12/26 05:53:10;;;;;;;4.20;3.90;;;12.60;99.90;;;;;;10321301;28;20195;-80
2022/12/26 05:58:13;;;;;;;4.30;3.73;;;12.70;99.90;;;;;;10340921;28;20443;-80
2022/12/26 06:03:15;;;;;;;4.10;3.90;;;12.70;99.90;;;;;;10339491;28;20266;-81
2022/12/26 06:08:17;;;;;;;4.60;4.33;;;12.70;99.90;;;;;;10340298;28;20246;-81
2022/12/26 06:13:20;;;;;;;4.10;3.90;;;12.70;99.90;;;;;;10338955;28;20624;-80
2022/12/26 06:18:23;;;;;;;4.70;4.30;;;12.80;99.90;;;;;;10339843;28;20207;-80
2022/12/26 06:23:25;;;;;;;3.93;3.73;;;12.80;99.90;;;;;;10343218;28;20286;-81
2022/12/26 06:28:28;;;;;;;4.70;4.40;;;12.80;99.90;;;;;;10339809;28;20234;-80
2022/12/26 06:33:30;;;;;;;3.93;3.70;;;12.90;99.90;;;;;;10338265;28;20210;-81
2022/12/26 06:38:33;;;;;;;4.37;3.97;;;12.90;99.90;;;;;;10338483;28;20316;-80
2022/12/26 06:43:37;;;;;;;4.10;3.80;;;12.90;99.90;;;;;;10338754;28;20261;-80
2022/12/26 06:48:39;;;;;;;3.97;3.67;;;12.90;99.90;;;;;;10333963;28;20218;-80
2022/12/26 06:53:41;;;;;;;4.47;4.17;;;12.90;99.90;;;;;;10333598;28;20582;-80
2022/12/26 06:58:45;;;;;;;4.20;3.90;;;12.90;99.90;;;;;;10335584;28;20215;-80
2022/12/26 07:03:47;;;;;;;4.30;4.00;;;12.90;99.90;;;;;;10337877;28;20225;-80
2022/12/26 07:08:50;;;;;;;3.80;3.60;;;12.90;99.90;;;;;;10338957;28;20247;-81
2022/12/26 07:13:54;;;;;;;4.20;3.80;;;12.90;99.90;;;;;;10349374;28;20202;-81
2022/12/26 07:18:58;;;;;;;3.60;3.40;;;13.00;99.90;;;;;;10340125;28;20211;-80
2022/12/26 07:24:00;;;;;;;4.60;4.30;;;13.00;99.90;;;;;;10338991;28;20222;-80
2022/12/26 07:29:03;;;;;;;4.23;4.03;;;13.00;99.90;;;;;;10340013;28;20290;-80
2022/12/26 07:34:05;;;;;;;4.50;4.10;;;13.00;99.90;;;;;;10355561;28;20187;-80
2022/12/26 07:39:07;;;;;;;4.27;4.00;;;13.00;99.90;;;;;;10341092;28;20215;-81
2022/12/26 07:44:11;;;;;;;4.10;3.80;;;13.00;99.90;;;;;;10357936;28;20206;-80
2022/12/26 07:49:14;;;;;;;4.40;4.10;;;13.00;99.90;;;;;;10345404;28;20260;-81
2022/12/26 07:54:16;;;;;;;4.30;4.00;;;13.00;99.90;;;;;;10340319;28;20209;-81
2022/12/26 07:59:19;;;;;;;3.37;3.17;;;13.00;99.90;;;;;;10340399;28;20222;-80
2022/12/26 08:04:21;;;;;;;4.30;4.00;;;13.00;99.90;;;;;;10338887;28;20203;-80
2022/12/26 08:09:24;;;;;;;4.63;4.33;;;12.90;99.90;;;;;;10318460;28;20226;-80
2022/12/26 08:14:27;;;;;;;4.17;3.87;;;12.70;99.90;;;;;;10348972;28;20196;-81
2022/12/26 08:19:29;;;;;;;5.27;4.77;;;12.60;99.90;;;;;;10336581;28;20215;-80
2022/12/26 08:24:31;;;;;;;5.50;5.10;;;12.50;99.90;;;;;;10341632;28;20577;-80
2022/12/26 08:29:35;;;;;;;4.60;4.30;;;12.40;99.90;;;;;;10343615;28;20249;-80
2022/12/26 08:34:37;;;;;;;4.90;4.60;;;12.30;99.90;;;;;;10343020;28;20203;-81
2022/12/26 08:39:39;;;;;;;4.70;4.50;;;12.30;99.90;;;;;;10345430;28;20299;-80
2022/12/26 08:44:42;;;;;;;5.00;4.70;;;12.30;99.90;;;;;;10343420;28;20203;-80
2022/12/26 08:49:44;;;;;;;5.40;5.00;;;12.30;99.90;;;;;;10353273;28;20219;-81
2022/12/26 08:54:46;;;;;;;6.90;5.90;;;12.40;99.90;;;;;;10339906;28;20274;-80
2022/12/26 08:59:50;;;;;;;5.57;5.17;;;12.40;99.90;;;;;;10338121;28;20218;-80
2022/12/26 09:04:52;;;;;;;5.73;5.23;;;12.40;99.90;;;;;;10337573;28;20286;-80
2022/12/26 09:09:54;;;;;;;5.23;4.83;;;12.40;99.90;;;;;;10338741;28;20233;-80
2022/12/26 09:14:58;;;;;;;5.23;4.87;;;12.40;99.90;;;;;;10339314;28;20191;-80
2022/12/26 09:20:00;;;;;;;7.13;6.53;;;12.40;99.90;;;;;;10338984;28;20266;-80
2022/12/26 09:25:02;;;;;;;7.77;7.17;;;12.40;99.90;;;;;;10339886;28;20211;-80
2022/12/26 09:30:07;;;;;;;12.83;11.07;;;12.30;99.90;;;;;;10338636;28;20227;-80
2022/12/26 09:35:09;;;;;;;15.27;13.77;;;12.30;99.90;;;;;;10342407;28;20191;-80
2022/12/26 09:40:23;;;;;;;9.60;8.80;;;12.20;99.90;;;;;;10329149;28;20218;-80
2022/12/26 09:45:37;;;;;;;8.20;7.60;;;12.10;99.90;;;;;;10322650;28;20227;-80
2022/12/26 09:50:40;;;;;;;7.27;6.67;;;12.10;99.90;;;;;;10338674;28;20215;-80
2022/12/26 09:55:47;;;;;;;8.37;7.30;;;12.00;99.90;;;;;;10340117;28;20694;-80
2022/12/26 10:00:52;;;;;;;9.60;8.90;;;12.00;99.90;;;;;;10339225;28;20250;-80
2022/12/26 10:06:08;;;;;;;8.70;8.10;;;12.00;99.90;;;;;;10338026;28;20675;-80
2022/12/26 10:11:18;;;;;;;12.80;11.90;;;12.10;99.90;;;;;;10338988;28;20223;-80
2022/12/26 10:16:32;;;;;;;14.77;13.60;;;12.00;99.90;;;;;;10340341;28;20196;-80
2022/12/26 10:21:45;;;;;;;13.83;12.87;;;12.00;99.90;;;;;;10345683;28;20203;-80
2022/12/26 10:26:53;;;;;;;14.33;13.17;;;11.90;99.90;;;;;;10341531;28;20237;-81
2022/12/26 10:31:59;;;;;;;13.27;12.37;;;11.90;99.90;;;;;;10340633;28;20585;-80
2022/12/26 10:37:07;;;;;;;12.83;11.90;;;11.80;99.90;;;;;;10335378;28;20224;-81
2022/12/26 10:42:17;;;;;;;11.57;10.97;;;11.80;99.90;;;;;;10342891;28;20278;-80
2022/12/26 10:47:30;;;;;;;11.87;11.00;;;11.80;99.90;;;;;;10304495;28;20635;-81
2022/12/26 10:52:36;;;;;;;11.30;10.70;;;11.80;99.90;;;;;;10334076;28;20571;-81
2022/12/26 10:57:41;;;;;;;12.30;11.57;;;11.80;99.90;;;;;;10308198;28;20226;-81
2022/12/26 11:02:44;;;;;;;11.17;10.47;;;11.70;99.90;;;;;;10337051;28;20591;-81
2022/12/26 11:07:50;;;;;;;12.13;11.33;;;11.70;99.90;;;;;;10317838;28;20258;-81
2022/12/26 11:12:54;;;;;;;14.23;13.33;;;11.60;99.90;;;;;;10335711;28;20643;-81
2022/12/26 11:18:09;;;;;;;11.00;10.40;;;11.60;99.90;;;;;;10335900;28;20222;-81
2022/12/26 11:23:30;;;;;;;12.43;11.43;;;11.70;99.90;;;;;;10335871;28;20745;-81
2022/12/26 11:28:34;;;;;;;10.70;10.10;;;11.60;99.90;;;;;;10337600;28;20246;-80
2022/12/26 11:33:42;;;;;;;13.50;12.60;;;11.60;99.90;;;;;;10321831;28;20218;-81
2022/12/26 11:38:51;;;;;;;9.43;8.93;;;11.60;99.90;;;;;;10338397;28;20243;-80
2022/12/26 11:43:55;;;;;;;8.93;8.53;;;11.60;99.90;;;;;;10346606;28;20199;-80
2022/12/26 11:48:59;;;;;;;8.77;8.37;;;11.60;99.90;;;;;;10337241;28;20226;-81
2022/12/26 11:54:29;;;;;;;8.10;7.70;;;11.50;99.90;;;;;;10339629;28;20202;-80
2022/12/26 11:59:32;;;;;;;7.90;7.50;;;11.50;99.90;;;;;;10295671;28;20219;-81
2022/12/26 12:04:35;;;;;;;7.23;6.93;;;11.50;99.90;;;;;;10344353;28;20253;-80
2022/12/26 12:09:44;;;;;;;7.13;6.83;;;11.50;99.90;;;;;;10340508;28;20306;-80
2022/12/26 12:14:58;;;;;;;7.00;6.70;;;11.50;99.90;;;;;;10326786;28;20207;-80
2022/12/26 12:20:17;;;;;;;5.80;5.60;;;11.70;99.90;;;;;;10332113;28;20226;-80
2022/12/26 12:25:36;;;;;;;5.40;5.10;;;11.80;99.90;;;;;;10331818;28;20198;-80
2022/12/26 12:30:45;;;;;;;5.30;5.10;;;11.90;99.90;;;;;;10279102;28;20220;-80
2022/12/26 12:35:58;;;;;;;5.53;5.27;;;12.00;99.90;;;;;;10307377;28;20654;-80
2022/12/26 12:41:26;;;;;;;6.07;5.77;;;12.10;99.90;;;;;;10334953;28;20215;-80
2022/12/26 12:46:36;;;;;;;5.73;5.33;;;12.20;99.90;;;;;;10335178;28;20671;-80
2022/12/26 12:51:47;;;;;;;5.47;5.17;;;12.30;99.90;;;;;;10334514;28;20276;-80
2022/12/26 12:56:59;;;;;;;5.70;5.40;;;12.30;99.90;;;;;;10335735;28;20573;-81
2022/12/26 13:02:06;;;;;;;5.23;5.03;;;12.40;99.90;;;;;;10336770;28;20265;-81
2022/12/26 13:07:17;;;;;;;5.07;4.77;;;12.50;99.90;;;;;;10363322;23;20585;-85
2022/12/26 13:12:22;;;;;;;4.50;4.30;;;12.50;99.90;;;;;;10390539;28;20553;-86
2022/12/26 13:17:29;;;;;;;5.20;4.70;;;12.50;99.90;;;;;;10396218;28;20209;-84
2022/12/26 13:28:08;;;;;;;5.07;4.87;;;12.50;99.90;;;;;;10386492;28;20226;-83
2022/12/26 13:33:14;;;;;;;4.60;4.50;;;12.50;99.90;;;;;;10414245;28;20719;-81
2022/12/26 13:38:18;;;;;;;4.47;4.27;;;12.50;99.90;;;;;;10400838;28;20246;-81
2022/12/26 13:48:59;;;;;;;4.20;4.00;;;12.50;99.90;;;;;;10253603;28;20238;-82
2022/12/26 13:54:10;;;;;;;4.77;4.57;;;12.40;99.90;;;;;;10334339;28;20448;-83
2022/12/26 13:59:15;;;;;;;4.80;4.70;;;12.50;99.90;;;;;;10389440;28;20637;-81
2022/12/26 14:04:36;;;;;;;7.83;7.30;;;12.50;99.90;;;;;;10391550;28;20232;-81
2022/12/26 14:09:58;;;;;;;5.30;5.00;;;12.40;99.90;;;;;;10412566;28;20232;-79
2022/12/26 14:15:19;;;;;;;4.50;4.30;;;12.40;99.90;;;;;;10397386;28;20201;-81
2022/12/26 14:20:30;;;;;;;4.87;4.37;;;12.40;99.90;;;;;;10389508;28;20321;-80
2022/12/26 14:25:52;;;;;;;4.83;4.63;;;12.30;99.90;;;;;;10372731;28;20637;-78
2022/12/26 14:31:05;;;;;;;4.20;4.00;;;12.30;99.90;;;;;;10388431;28;20733;-80
2022/12/26 14:36:27;;;;;;;4.37;4.17;;;12.30;99.90;;;;;;10402983;28;20231;-81
2022/12/26 14:47:41;;;;;;;4.10;4.00;;;12.30;99.90;;;;;;10385705;28;20225;-79
2022/12/26 14:52:44;;;;;;;4.50;4.23;;;12.20;99.90;;;;;;10334334;28;20326;-79
2022/12/26 14:57:48;;;;;;;4.53;4.33;;;12.20;99.90;;;;;;10365993;28;20241;-79
2022/12/26 15:03:13;;;;;;;3.83;3.73;;;12.20;99.90;;;;;;10367384;28;20230;-80
2022/12/26 15:08:37;;;;;;;4.03;3.83;;;12.20;99.90;;;;;;10351739;28;20281;-80
2022/12/26 15:14:21;;;;;;;7.67;6.80;;;12.20;99.90;;;;;;10395048;28;20199;-81
2022/12/26 15:20:05;;;;;;;4.40;4.10;;;12.20;99.90;;;;;;10387708;28;20225;-81
2022/12/26 15:25:35;;;;;;;3.43;3.10;;;12.10;99.90;;;;;;10350431;28;20205;-81
2022/12/26 15:30:55;;;;;;;3.30;3.20;;;12.10;99.90;;;;;;10365358;28;20257;-82
2022/12/26 15:36:08;;;;;;;2.70;2.60;;;12.00;99.90;;;;;;10379086;28;20637;-81
2022/12/26 15:41:22;;;;;;;2.83;2.73;;;12.00;99.90;;;;;;10383617;28;20606;-81
2022/12/26 15:46:30;;;;;;;3.50;3.40;;;12.00;99.90;;;;;;10357227;28;20218;-80
2022/12/26 15:51:44;;;;;;;3.50;3.30;;;12.00;99.90;;;;;;10354451;28;20253;-82
2022/12/26 15:57:00;;;;;;;4.17;3.70;;;12.00;99.90;;;;;;10351649;28;20198;-81
2022/12/26 16:02:08;;;;;;;3.80;3.60;;;12.00;99.90;;;;;;10330259;28;20201;-81
2022/12/26 16:07:27;;;;;;;3.70;3.50;;;12.00;99.90;;;;;;10345565;28;20219;-81
2022/12/26 16:12:34;;;;;;;3.67;3.40;;;12.00;99.90;;;;;;10328272;28;20206;-80
2022/12/26 16:17:37;;;;;;;3.80;3.60;;;12.00;99.90;;;;;;10338194;28;20226;-81
2022/12/26 16:22:45;;;;;;;3.63;3.40;;;11.90;99.90;;;;;;10383690;28;20246;-79
2022/12/26 16:27:55;;;;;;;3.30;3.20;;;11.90;99.90;;;;;;10337841;28;20290;-83
2022/12/26 16:33:00;;;;;;;3.30;3.20;;;11.90;99.90;;;;;;10340103;28;20295;-80
2022/12/26 16:38:05;;;;;;;3.57;3.30;;;11.90;99.90;;;;;;10335515;28;20694;-82
2022/12/26 16:43:34;;;;;;;4.00;3.70;;;11.90;99.90;;;;;;10356999;28;20198;-83
2022/12/26 16:48:37;;;;;;;4.03;3.73;;;11.90;99.90;;;;;;10360973;28;20234;-83
2022/12/26 16:53:44;;;;;;;3.70;3.60;;;11.90;99.90;;;;;;10377493;28;20203;-80
2022/12/26 16:58:49;;;;;;;4.23;4.03;;;11.90;99.90;;;;;;10354675;28;20623;-81
2022/12/26 17:03:54;;;;;;;4.30;4.00;;;11.90;99.90;;;;;;10379054;28;20194;-80
2022/12/26 17:08:58;;;;;;;3.97;3.70;;;11.80;99.90;;;;;;10383142;28;20226;-81
2022/12/26 17:14:04;;;;;;;4.00;3.80;;;11.80;99.90;;;;;;10386730;28;20205;-82
2022/12/26 17:19:17;;;;;;;3.60;3.40;;;11.80;99.90;;;;;;10342201;28;20211;-79
2022/12/26 17:24:29;;;;;;;3.40;3.20;;;11.80;99.90;;;;;;10376265;28;20210;-80
2022/12/26 17:29:50;;;;;;;4.43;4.13;;;11.80;99.90;;;;;;10369960;28;20285;-81
2022/12/26 17:34:55;;;;;;;3.13;3.03;;;11.80;99.90;;;;;;10372072;28;20785;-82
2022/12/26 17:40:08;;;;;;;3.80;3.60;;;11.90;99.90;;;;;;10360112;28;20305;-80
2022/12/26 17:45:16;;;;;;;4.20;4.00;;;11.90;99.90;;;;;;10385193;28;20206;-83
2022/12/26 17:50:40;;;;;;;7.10;4.33;;;11.90;99.90;;;;;;10373158;28;20222;-82
2022/12/26 17:55:46;;;;;;;6.40;5.90;;;11.90;99.90;;;;;;10377917;28;20248;-84
2022/12/26 18:00:50;;;;;;;9.07;8.57;;;11.80;99.90;;;;;;10389599;28;20210;-82
2022/12/26 18:05:55;;;;;;;10.70;10.00;;;11.70;99.90;;;;;;10363628;28;20311;-82
2022/12/26 18:10:58;;;;;;;11.37;10.77;;;11.70;99.90;;;;;;10355608;28;20273;-81
2022/12/26 18:16:02;;;;;;;9.90;9.40;;;11.60;99.90;;;;;;10339950;28;20647;-82
2022/12/26 18:21:07;;;;;;;9.60;9.00;;;11.40;99.90;;;;;;10344863;28;20234;-83
2022/12/26 18:26:17;;;;;;;9.97;9.33;;;11.20;99.90;;;;;;10357085;28;20195;-82
2022/12/26 18:31:21;;;;;;;8.60;8.20;;;11.00;99.90;;;;;;10359689;28;20317;-84
2022/12/26 18:36:28;;;;;;;7.30;7.00;;;11.00;99.90;;;;;;10342415;28;20199;-83
2022/12/26 18:41:34;;;;;;;7.90;7.60;;;10.90;99.90;;;;;;10364925;28;20652;-83
2022/12/26 18:46:41;;;;;;;9.07;8.70;;;10.70;99.90;;;;;;10381188;28;20700;-82
2022/12/26 18:51:43;;;;;;;8.67;8.37;;;10.70;99.90;;;;;;10367240;28;20229;-84
2022/12/26 18:56:45;;;;;;;8.23;7.93;;;10.60;99.90;;;;;;10361710;28;20645;-83
2022/12/26 19:01:48;;;;;;;9.80;9.30;;;10.50;99.90;;;;;;10359605;28;20203;-83
2022/12/26 19:06:52;;;;;;;9.80;8.90;;;10.30;99.90;;;;;;10355113;28;20201;-83
2022/12/26 19:11:54;;;;;;;9.50;9.07;;;10.20;99.90;;;;;;10335655;23;20311;-82
2022/12/26 19:17:00;;;;;;;7.47;7.17;;;10.20;99.90;;;;;;10292095;28;20199;-83
2022/12/26 19:22:02;;;;;;;9.43;8.93;;;10.10;99.90;;;;;;10304308;28;20230;-82
2022/12/26 19:27:04;;;;;;;9.50;9.00;;;10.00;99.90;;;;;;10289828;28;20218;-82
2022/12/26 19:32:14;;;;;;;10.07;9.63;;;10.00;99.90;;;;;;10289400;28;20227;-82
2022/12/26 19:37:25;;;;;;;9.97;9.57;;;10.00;99.90;;;;;;10273310;28;20231;-83
2022/12/26 19:42:27;;;;;;;9.80;9.20;;;10.00;99.90;;;;;;10285968;28;20204;-82
2022/12/26 19:47:33;;;;;;;10.53;10.10;;;10.10;99.90;;;;;;10288651;28;20223;-82
2022/12/26 19:52:37;;;;;;;10.60;10.10;;;10.10;99.90;;;;;;10267964;28;20254;-83
2022/12/26 19:57:39;;;;;;;9.77;9.17;;;10.20;99.90;;;;;;10387630;23;20210;-83
2022/12/26 20:02:42;;;;;;;10.50;10.00;;;10.20;99.90;;;;;;10311133;28;20647;-83
2022/12/26 20:07:44;;;;;;;8.60;8.20;;;10.30;99.90;;;;;;10310079;28;20318;-82
2022/12/26 20:12:46;;;;;;;10.90;10.30;;;10.40;99.90;;;;;;10310366;28;20291;-82
2022/12/26 20:17:51;;;;;;;10.10;9.47;;;10.40;99.90;;;;;;10333759;28;20689;-83
2022/12/26 20:22:53;;;;;;;8.70;8.30;;;10.40;99.90;;;;;;10319101;28;20202;-82
2022/12/26 20:27:55;;;;;;;7.67;7.27;;;10.50;99.90;;;;;;10336959;28;20348;-81
2022/12/26 20:32:59;;;;;;;8.50;8.10;;;10.40;99.90;;;;;;10319448;28;20257;-83
2022/12/26 20:38:01;;;;;;;8.67;8.07;;;10.30;99.90;;;;;;10302104;28;20770;-81
2022/12/26 20:43:03;;;;;;;8.50;8.10;;;10.30;99.90;;;;;;10302809;28;20599;-80
2022/12/26 20:48:06;;;;;;;7.90;7.60;;;10.40;99.90;;;;;;10318565;28;20219;-83
2022/12/26 20:53:09;;;;;;;6.20;5.93;;;10.40;99.90;;;;;;10335375;28;20222;-83
2022/12/26 20:58:11;;;;;;;7.07;6.77;;;10.50;99.90;;;;;;10345550;28;20261;-79
2022/12/26 21:03:14;;;;;;;6.30;6.03;;;10.50;99.90;;;;;;10322268;28;20370;-83
2022/12/26 21:08:16;;;;;;;5.90;5.60;;;10.40;99.90;;;;;;10317690;28;20241;-82
2022/12/26 21:13:18;;;;;;;5.47;5.17;;;10.40;99.90;;;;;;10326204;28;20254;-81
2022/12/26 21:18:29;;;;;;;6.10;5.80;;;10.40;99.90;;;;;;10338825;28;20294;-81
2022/12/26 21:23:31;;;;;;;5.10;4.80;;;10.30;99.90;;;;;;10325292;28;20191;-80
2022/12/26 21:28:40;;;;;;;5.67;5.37;;;10.30;99.90;;;;;;10344872;28;20225;-83
2022/12/26 21:33:44;;;;;;;5.57;5.17;;;10.30;99.90;;;;;;10320654;28;20274;-82
2022/12/26 21:38:47;;;;;;;6.40;5.90;;;10.30;99.90;;;;;;10393196;23;20247;-80
2022/12/26 21:43:49;;;;;;;5.63;5.33;;;10.30;99.90;;;;;;10298395;28;20757;-82
2022/12/26 21:49:13;;;;;;;5.00;4.80;;;10.30;99.90;;;;;;10309094;28;20627;-82
2022/12/26 22:05:30;;;;;;;5.37;5.00;;;10.10;99.90;;;;;;10289833;28;20191;-83
2022/12/26 22:16:06;;;;;;;5.40;5.03;;;9.90;99.90;;;;;;10316367;28;20219;-82
2022/12/26 22:21:12;;;;;;;4.77;4.47;;;9.90;99.90;;;;;;10313600;28;20214;-82
2022/12/26 22:26:16;;;;;;;5.07;4.70;;;9.90;99.90;;;;;;10281200;28;20660;-83
2022/12/26 22:31:20;;;;;;;4.20;4.00;;;9.80;99.90;;;;;;10316321;28;20224;-82
2022/12/26 22:36:23;;;;;;;3.80;3.60;;;9.80;99.90;;;;;;10319439;28;20200;-82
2022/12/26 22:41:26;;;;;;;4.60;4.30;;;9.70;99.90;;;;;;10289612;28;20338;-82
2022/12/26 22:46:30;;;;;;;4.80;4.50;;;9.70;99.90;;;;;;10310642;28;20249;-81
2022/12/26 22:51:34;;;;;;;4.67;4.27;;;9.70;99.90;;;;;;10300971;28;20223;-81
2022/12/26 23:02:03;;;;;;;6.20;3.20;;;9.60;99.90;;;;;;10360358;28;20284;-83
2022/12/26 23:07:28;;;;;;;3.97;3.77;;;9.60;99.90;;;;;;10290314;28;20691;-82
2022/12/26 23:12:45;;;;;;;3.40;3.20;;;9.70;99.90;;;;;;10297076;28;20697;-82
2022/12/26 23:23:15;;;;;;;4.63;3.17;;;9.60;99.90;;;;;;10271999;28;20199;-82
2022/12/26 23:33:39;;;;;;;3.00;2.80;;;9.50;99.90;;;;;;10325159;28;20199;-82
2022/12/26 23:38:42;;;;;;;3.50;3.30;;;9.40;99.90;;;;;;10280222;28;20302;-81
2022/12/26 23:43:44;;;;;;;3.53;3.27;;;9.40;99.90;;;;;;10313714;28;20570;-82
2022/12/26 23:48:47;;;;;;;4.50;3.20;;;9.30;99.90;;;;;;10322020;28;20216;-82
2022/12/26 23:53:50;;;;;;;2.90;2.80;;;9.30;99.90;;;;;;10314303;28;20648;-82
